createdAt,value
2023-07-05T00:00:51.379Z,12.44
2023-07-05T00:03:19.447Z,12.38
2023-07-05T00:05:47.538Z,12.49
2023-07-05T00:08:15.696Z,12.40
2023-07-05T00:10:43.800Z,12.46
2023-07-05T00:13:11.910Z,12.46
2023-07-05T00:15:39.917Z,12.38
2023-07-05T00:18:09.286Z,12.40
2023-07-05T00:20:38.641Z,12.45
2023-07-05T00:23:07.015Z,12.46
2023-07-05T00:25:35.039Z,12.47
2023-07-05T00:28:03.071Z,12.45
2023-07-05T00:30:31.177Z,12.46
2023-07-05T00:32:59.221Z,12.48
2023-07-05T00:35:28.706Z,12.50
2023-07-05T00:37:57.504Z,12.53
2023-07-05T00:40:25.505Z,12.51
2023-07-05T00:42:53.586Z,12.51
2023-07-05T00:45:51.578Z,12.56
2023-07-05T00:48:23.487Z,12.59
2023-07-05T00:50:56.693Z,12.48
2023-07-05T00:53:26.151Z,12.59
2023-07-05T00:55:59.882Z,12.53
2023-07-05T00:58:28.011Z,12.48
2023-07-05T01:00:56.813Z,12.52
2023-07-05T01:03:27.564Z,12.51
2023-07-05T01:06:00.307Z,12.51
2023-07-05T01:08:28.330Z,12.54
2023-07-05T01:11:10.145Z,12.53
2023-07-05T01:13:44.158Z,12.57
2023-07-05T01:16:28.726Z,12.54
2023-07-05T01:19:06.935Z,12.55
2023-07-05T01:21:45.411Z,12.58
2023-07-05T01:24:52.008Z,12.59
2023-07-05T01:27:40.915Z,12.57
2023-07-05T01:30:53.914Z,12.58
2023-07-05T01:33:29.822Z,12.55
2023-07-05T01:35:59.001Z,12.57
2023-07-05T01:38:27.085Z,12.58
2023-07-05T01:40:59.708Z,12.57
2023-07-05T01:43:29.155Z,12.61
2023-07-05T01:46:23.828Z,12.59
2023-07-05T01:49:32.446Z,12.57
2023-07-05T01:52:10.170Z,12.59
2023-07-05T01:54:45.206Z,12.57
2023-07-05T01:57:18.801Z,12.55
2023-07-05T01:59:56.855Z,12.50
2023-07-05T02:02:28.559Z,12.54
2023-07-05T02:04:58.199Z,12.52
2023-07-05T02:07:28.789Z,12.54
2023-07-05T02:09:57.419Z,12.48
2023-07-05T02:12:26.408Z,12.51
2023-07-05T02:14:55.076Z,12.47
2023-07-05T02:17:24.085Z,12.44
2023-07-05T02:19:52.551Z,12.41
2023-07-05T02:22:21.060Z,12.38
2023-07-05T02:24:52.970Z,12.35
2023-07-05T02:27:21.600Z,12.32
2023-07-05T02:29:49.744Z,12.33
2023-07-05T02:32:17.910Z,12.21
2023-07-05T02:34:46.144Z,12.17
2023-07-05T02:37:15.303Z,12.13
2023-07-05T02:39:43.749Z,12.08
2023-07-05T02:42:13.177Z,12.06
2023-07-05T02:44:42.047Z,11.98
2023-07-05T02:47:10.247Z,12.00
2023-07-05T02:49:38.468Z,11.90
2023-07-05T02:52:07.472Z,11.87
2023-07-05T02:54:35.485Z,11.80
2023-07-05T02:57:03.849Z,11.76
2023-07-05T02:59:33.320Z,11.72
2023-07-05T03:02:01.410Z,11.67
2023-07-05T03:04:29.805Z,11.65
2023-07-05T03:06:58.681Z,11.58
2023-07-05T03:09:26.807Z,11.52
2023-07-05T03:11:54.898Z,11.49
2023-07-05T03:14:22.920Z,11.49
2023-07-05T03:16:52.483Z,11.43
2023-07-05T03:19:20.641Z,11.39
2023-07-05T03:21:49.912Z,11.34
2023-07-05T03:24:18.938Z,11.31
2023-07-05T03:26:47.245Z,11.25
2023-07-05T03:29:15.813Z,11.27
2023-07-05T03:31:43.930Z,11.24
2023-07-05T03:34:13.341Z,11.22
2023-07-05T03:36:41.369Z,11.18
2023-07-05T03:39:09.465Z,11.14
2023-07-05T03:41:38.317Z,11.15
2023-07-05T03:44:06.326Z,11.11
2023-07-05T03:46:34.403Z,11.08
2023-07-05T03:49:02.529Z,11.02
2023-07-05T03:51:31.990Z,11.01
2023-07-05T03:54:00.200Z,11.00
2023-07-05T03:56:29.636Z,10.98
2023-07-05T03:58:58.590Z,10.97
2023-07-05T04:01:28.331Z,10.93
2023-07-05T04:03:57.862Z,10.88
2023-07-05T04:06:27.739Z,10.90
2023-07-05T04:08:57.177Z,10.90
2023-07-05T04:11:25.722Z,10.85
2023-07-05T04:13:56.661Z,10.83
2023-07-05T04:16:27.463Z,10.83
2023-07-05T04:18:57.294Z,10.81
2023-07-05T04:21:26.422Z,10.82
2023-07-05T04:23:54.795Z,10.80
2023-07-05T04:26:27.583Z,10.77
2023-07-05T04:28:55.951Z,10.78
2023-07-05T04:31:29.724Z,10.78
2023-07-05T04:33:58.468Z,10.78
2023-07-05T04:36:28.598Z,10.78
2023-07-05T04:38:57.922Z,10.78
2023-07-05T04:41:28.041Z,10.78
2023-07-05T04:43:56.281Z,10.78
2023-07-05T04:46:24.785Z,10.77
2023-07-05T04:48:53.313Z,10.81
2023-07-05T04:51:21.729Z,10.84
2023-07-05T04:53:50.077Z,10.84
2023-07-05T04:56:18.300Z,10.88
2023-07-05T04:58:49.994Z,10.88
2023-07-05T05:01:20.416Z,10.87
2023-07-05T05:03:48.780Z,10.93
2023-07-05T05:06:17.089Z,10.92
2023-07-05T05:08:45.160Z,10.95
2023-07-05T05:11:13.129Z,10.96
2023-07-05T05:13:41.277Z,10.99
2023-07-05T05:16:10.712Z,11.00
2023-07-05T05:18:39.512Z,11.03
2023-07-05T05:21:07.527Z,11.06
2023-07-05T05:23:35.525Z,11.07
2023-07-05T05:26:04.033Z,11.13
2023-07-05T05:28:32.275Z,11.17
2023-07-05T05:31:05.817Z,11.20
2023-07-05T05:33:35.620Z,11.24
2023-07-05T05:36:04.460Z,11.25
2023-07-05T05:38:32.512Z,11.32
2023-07-05T05:41:05.217Z,11.34
2023-07-05T05:43:33.463Z,11.38
2023-07-05T05:46:01.527Z,11.43
2023-07-05T05:48:29.724Z,11.45
2023-07-05T05:51:00.270Z,11.52
2023-07-05T05:53:28.443Z,11.50
2023-07-05T05:55:58.554Z,11.54
2023-07-05T05:58:27.321Z,11.57
2023-07-05T06:00:55.953Z,11.63
2023-07-05T06:03:24.407Z,11.69
2023-07-05T06:05:53.029Z,11.74
2023-07-05T06:08:22.549Z,11.78
2023-07-05T06:10:56.765Z,11.82
2023-07-05T06:13:24.933Z,11.84
2023-07-05T06:16:12.208Z,11.90
2023-07-05T06:18:42.019Z,11.94
2023-07-05T06:21:12.474Z,12.04
2023-07-05T06:23:42.009Z,12.10
2023-07-05T06:26:10.885Z,12.15
2023-07-05T06:28:38.998Z,12.17
2023-07-05T06:31:07.927Z,12.19
2023-07-05T06:33:36.111Z,12.31
2023-07-05T06:36:04.365Z,12.32
2023-07-05T06:38:32.442Z,12.31
2023-07-05T06:41:01.786Z,12.41
2023-07-05T06:43:29.973Z,12.47
2023-07-05T06:45:59.038Z,12.58
2023-07-05T06:48:27.261Z,12.67
2023-07-05T06:50:56.602Z,12.81
2023-07-05T06:55:57.474Z,13.11
2023-07-05T06:58:26.876Z,13.20
2023-07-05T07:00:55.156Z,13.34
2023-07-05T07:03:23.355Z,13.39
2023-07-05T07:05:54.026Z,13.41
2023-07-05T07:08:22.670Z,13.28
2023-07-05T07:11:15.769Z,13.40
2023-07-05T07:13:45.294Z,13.43
2023-07-05T07:16:15.719Z,13.35
2023-07-05T07:18:46.932Z,13.42
2023-07-05T07:21:15.651Z,13.55
2023-07-05T07:23:43.758Z,13.59
2023-07-05T07:26:13.915Z,13.56
2023-07-05T07:28:42.294Z,13.62
2023-07-05T07:31:13.238Z,13.60
2023-07-05T07:33:41.538Z,13.63
2023-07-05T07:36:11.228Z,13.72
2023-07-05T07:38:39.910Z,13.87
2023-07-05T07:41:13.736Z,14.10
2023-07-05T07:43:41.803Z,14.24
2023-07-05T07:46:12.963Z,14.29
2023-07-05T07:49:33.789Z,14.42
2023-07-05T07:52:01.995Z,14.41
2023-07-05T07:54:32.373Z,14.58
2023-07-05T07:57:00.516Z,14.55
2023-07-05T07:59:28.614Z,14.67
2023-07-05T08:01:58.026Z,14.73
2023-07-05T08:04:27.669Z,14.73
2023-07-05T08:06:55.819Z,14.74
2023-07-05T08:09:27.214Z,14.69
2023-07-05T08:11:57.532Z,14.73
2023-07-05T08:14:25.702Z,14.58
2023-07-05T08:16:54.003Z,14.74
2023-07-05T08:19:24.003Z,14.80
2023-07-05T08:26:43.251Z,15.01
2023-07-05T08:29:11.469Z,15.33
2023-07-05T08:31:39.573Z,15.50
2023-07-05T08:34:07.574Z,15.68
2023-07-05T08:36:39.333Z,15.75
2023-07-05T08:39:08.988Z,15.60
2023-07-05T08:41:53.721Z,15.62
2023-07-05T08:44:26.218Z,15.80
2023-07-05T08:46:59.578Z,15.60
2023-07-05T08:49:34.083Z,15.62
2023-07-05T08:52:03.721Z,15.60
2023-07-05T08:54:34.086Z,15.76
2023-07-05T08:57:06.569Z,15.81
2023-07-05T08:59:47.003Z,15.91
2023-07-05T09:02:18.777Z,15.84
2023-07-05T09:04:48.997Z,15.72
2023-07-05T09:08:07.166Z,15.67
2023-07-05T09:10:43.926Z,15.75
2023-07-05T09:13:18.134Z,16.11
2023-07-05T09:15:51.543Z,16.21
2023-07-05T09:18:28.633Z,16.51
2023-07-05T09:21:09.777Z,16.67
2023-07-05T09:23:42.566Z,16.68
2023-07-05T09:26:17.187Z,16.63
2023-07-05T09:28:52.611Z,16.67
2023-07-05T09:31:23.766Z,16.36
2023-07-05T09:34:00.487Z,16.47
2023-07-05T09:36:29.614Z,16.51
2023-07-05T09:39:04.126Z,16.49
2023-07-05T09:41:42.361Z,16.56
2023-07-05T09:44:10.394Z,16.70
2023-07-05T09:46:40.198Z,16.87
2023-07-05T09:49:14.911Z,17.04
2023-07-05T09:51:45.239Z,17.17
2023-07-05T09:54:20.261Z,17.37
2023-07-05T09:57:03.143Z,17.63
2023-07-05T09:59:31.266Z,17.69
2023-07-05T10:02:26.485Z,17.62
2023-07-05T10:04:58.120Z,17.72
2023-07-05T10:12:17.651Z,17.20
2023-07-05T10:14:47.141Z,17.22
2023-07-05T10:17:15.231Z,17.79
2023-07-05T10:19:50.174Z,18.02
2023-07-05T10:22:29.068Z,17.98
2023-07-05T10:25:00.598Z,18.21
2023-07-05T10:27:55.514Z,18.16
2023-07-05T10:30:23.563Z,18.28
2023-07-05T10:33:11.022Z,18.28
2023-07-05T10:35:48.273Z,18.08
2023-07-05T10:38:28.193Z,17.69
2023-07-05T10:41:03.549Z,17.56
2023-07-05T10:43:34.848Z,17.23
2023-07-05T10:46:05.000Z,17.26
2023-07-05T10:48:41.777Z,17.32
2023-07-05T10:51:21.192Z,17.49
2023-07-05T10:53:54.783Z,17.30
2023-07-05T10:56:26.282Z,17.20
2023-07-05T10:59:02.139Z,17.18
2023-07-05T11:01:34.533Z,17.16
2023-07-05T11:04:07.209Z,16.92
2023-07-05T11:06:36.471Z,17.09
2023-07-05T11:09:06.999Z,17.17
2023-07-05T11:11:43.049Z,17.22
2023-07-05T11:14:16.242Z,17.36
2023-07-05T11:16:47.217Z,17.51
2023-07-05T11:24:08.409Z,17.87
2023-07-05T11:26:40.022Z,17.98
2023-07-05T11:29:52.565Z,17.99
2023-07-05T11:32:21.563Z,18.23
2023-07-05T11:34:52.288Z,18.71
2023-07-05T11:37:38.281Z,19.13
2023-07-05T11:40:27.058Z,19.46
2023-07-05T11:42:55.562Z,19.66
2023-07-05T11:45:25.123Z,19.60
2023-07-05T11:47:53.673Z,19.97
2023-07-05T11:50:23.745Z,20.30
2023-07-05T11:53:02.588Z,20.32
2023-07-05T11:55:35.504Z,20.48
2023-07-05T11:58:08.468Z,20.17
2023-07-05T12:00:43.548Z,19.93
2023-07-05T12:03:20.606Z,19.60
2023-07-05T12:05:56.235Z,19.22
2023-07-05T12:08:51.049Z,18.89
2023-07-05T12:11:30.894Z,18.89
2023-07-05T12:14:03.432Z,18.79
2023-07-05T12:16:34.248Z,18.41
2023-07-05T12:19:02.883Z,18.52
2023-07-05T12:21:34.234Z,18.01
2023-07-05T12:24:08.761Z,18.17
2023-07-05T12:26:38.302Z,17.85
2023-07-05T12:29:22.832Z,17.59
2023-07-05T12:32:03.776Z,17.22
2023-07-05T12:34:31.862Z,17.21
2023-07-05T12:37:00.122Z,17.12
2023-07-05T12:39:28.183Z,17.34
2023-07-05T12:42:01.039Z,17.35
2023-07-05T12:44:31.234Z,17.57
2023-07-05T12:47:14.755Z,17.69
2023-07-05T12:49:43.037Z,17.68
2023-07-05T12:52:20.713Z,18.65
2023-07-05T12:54:49.137Z,18.39
2023-07-05T12:57:27.720Z,18.53
2023-07-05T13:00:06.022Z,18.55
2023-07-05T13:02:36.864Z,18.41
2023-07-05T13:05:06.410Z,18.74
2023-07-05T13:07:36.527Z,19.53
2023-07-05T13:10:08.570Z,20.48
2023-07-05T13:12:51.074Z,21.01
2023-07-05T13:15:19.319Z,21.77
2023-07-05T13:17:49.243Z,21.53
2023-07-05T13:20:21.800Z,20.93
2023-07-05T13:22:58.545Z,20.89
2023-07-05T13:25:32.726Z,20.68
2023-07-05T13:28:03.805Z,20.68
2023-07-05T13:30:32.801Z,20.34
2023-07-05T13:33:03.490Z,20.21
2023-07-05T13:35:33.788Z,19.89
2023-07-05T13:38:03.425Z,19.85
2023-07-05T13:40:33.149Z,19.63
2023-07-05T13:43:04.125Z,19.55
2023-07-05T13:45:34.244Z,19.61
2023-07-05T13:48:03.941Z,19.65
2023-07-05T13:50:35.309Z,19.84
2023-07-05T13:53:05.099Z,20.32
2023-07-05T13:55:34.430Z,20.78
2023-07-05T13:58:07.872Z,20.46
2023-07-05T14:00:37.375Z,20.43
2023-07-05T14:03:10.006Z,20.27
2023-07-05T14:05:38.234Z,20.27
2023-07-05T14:08:08.553Z,20.50
2023-07-05T14:10:37.235Z,20.61
2023-07-05T14:13:05.247Z,20.47
2023-07-05T14:15:37.701Z,20.33
2023-07-05T14:18:08.383Z,20.13
2023-07-05T14:20:39.108Z,19.85
2023-07-05T14:23:07.960Z,19.73
2023-07-05T14:25:42.346Z,20.64
2023-07-05T14:28:10.472Z,21.54
2023-07-05T14:30:39.462Z,21.87
2023-07-05T14:33:11.282Z,22.26
2023-07-05T14:35:39.531Z,22.54
2023-07-05T14:38:09.469Z,22.76
2023-07-05T14:40:38.908Z,22.71
2023-07-05T14:43:07.029Z,23.00
2023-07-05T14:45:38.493Z,22.83
2023-07-05T14:48:08.406Z,22.85
2023-07-05T14:50:36.928Z,22.08
2023-07-05T14:53:07.816Z,22.24
2023-07-05T14:56:01.781Z,21.90
2023-07-05T14:58:54.637Z,21.99
2023-07-05T15:01:22.797Z,21.58
2023-07-05T15:03:53.745Z,21.66
2023-07-05T15:06:21.831Z,21.85
2023-07-05T15:08:50.372Z,21.65
2023-07-05T15:11:18.843Z,21.44
2023-07-05T15:13:48.106Z,21.07
2023-07-05T15:17:06.459Z,21.27
2023-07-05T15:19:35.857Z,21.36
2023-07-05T15:22:04.940Z,21.31
2023-07-05T15:24:34.366Z,21.23
2023-07-05T15:27:02.420Z,21.29
2023-07-05T15:29:30.848Z,21.19
2023-07-05T15:31:58.877Z,21.10
2023-07-05T15:34:27.163Z,21.00
2023-07-05T15:36:56.678Z,20.73
2023-07-05T15:39:25.011Z,20.42
2023-07-05T15:41:53.712Z,20.57
2023-07-05T15:44:21.740Z,20.56
2023-07-05T15:46:49.753Z,20.47
2023-07-05T15:49:17.840Z,20.10
2023-07-05T15:51:45.835Z,20.21
2023-07-05T15:54:16.451Z,20.14
2023-07-05T15:57:09.495Z,20.21
2023-07-05T15:59:37.738Z,20.36
2023-07-05T16:02:09.920Z,20.29
2023-07-05T16:09:11.202Z,20.58
2023-07-05T16:11:41.474Z,20.72
2023-07-05T16:14:09.454Z,20.69
2023-07-05T16:16:37.632Z,20.93
2023-07-05T16:19:06.082Z,21.22
2023-07-05T16:21:34.329Z,21.55
2023-07-05T16:24:02.406Z,22.25
2023-07-05T16:26:30.391Z,22.68
2023-07-05T16:28:59.783Z,22.39
2023-07-05T16:31:28.004Z,22.39
2023-07-05T16:34:21.763Z,23.19
2023-07-05T16:36:50.105Z,23.56
2023-07-05T16:39:20.288Z,23.06
2023-07-05T16:41:49.794Z,22.79
2023-07-05T16:44:19.641Z,22.40
2023-07-05T16:46:47.736Z,22.12
2023-07-05T16:49:15.885Z,21.70
2023-07-05T16:51:43.871Z,21.63
2023-07-05T16:54:11.882Z,21.46
2023-07-05T16:56:39.865Z,21.42
2023-07-05T16:59:08.563Z,21.73
2023-07-05T17:01:38.017Z,21.69
2023-07-05T17:04:06.790Z,21.40
2023-07-05T17:06:35.318Z,21.16
2023-07-05T17:09:29.824Z,21.78
2023-07-05T17:11:58.441Z,22.54
2023-07-05T17:14:26.411Z,22.97
2023-07-05T17:18:11.496Z,23.49
2023-07-05T17:20:40.917Z,24.03
2023-07-05T17:23:09.058Z,23.96
2023-07-05T17:25:37.271Z,23.33
2023-07-05T17:28:07.912Z,23.01
2023-07-05T17:30:38.775Z,22.64
2023-07-05T17:33:09.198Z,22.39
2023-07-05T17:35:37.733Z,22.30
2023-07-05T17:38:07.156Z,22.30
2023-07-05T17:40:35.471Z,22.00
2023-07-05T17:43:04.677Z,21.60
2023-07-05T17:45:35.911Z,21.45
2023-07-05T17:48:04.425Z,21.05
2023-07-05T17:50:32.849Z,21.00
2023-07-05T17:53:01.686Z,20.97
2023-07-05T17:55:31.100Z,20.99
2023-07-05T17:58:02.184Z,20.94
2023-07-05T18:00:30.395Z,20.97
2023-07-05T18:02:58.488Z,20.99
2023-07-05T18:05:27.286Z,20.61
2023-07-05T18:07:55.385Z,20.81
2023-07-05T18:10:24.274Z,20.70
2023-07-05T18:12:54.446Z,20.75
2023-07-05T18:15:22.507Z,20.68
2023-07-05T18:17:50.530Z,20.65
2023-07-05T18:20:18.635Z,20.53
2023-07-05T18:22:47.427Z,20.43
2023-07-05T18:25:15.866Z,20.26
2023-07-05T18:27:44.082Z,20.26
2023-07-05T18:30:26.204Z,20.15
2023-07-05T18:33:10.853Z,20.03
2023-07-05T18:35:41.245Z,20.05
2023-07-05T18:38:14.500Z,19.88
2023-07-05T18:41:06.915Z,19.89
2023-07-05T18:43:37.097Z,19.76
2023-07-05T18:46:11.373Z,19.83
2023-07-05T18:48:43.223Z,19.76
2023-07-05T18:51:16.057Z,19.73
2023-07-05T18:53:46.745Z,19.72
2023-07-05T18:56:25.750Z,19.59
2023-07-05T18:58:54.021Z,19.54
2023-07-05T19:01:24.062Z,19.48
2023-07-05T19:03:52.794Z,19.46
2023-07-05T19:06:24.039Z,19.39
2023-07-05T19:08:53.785Z,19.36
2023-07-05T19:11:24.898Z,19.33
2023-07-05T19:13:53.670Z,19.21
2023-07-05T19:16:27.697Z,19.23
2023-07-05T19:18:57.435Z,19.17
2023-07-05T19:21:28.202Z,19.12
2023-07-05T19:23:56.105Z,19.07
2023-07-05T19:26:24.255Z,19.00
2023-07-05T19:28:53.089Z,18.95
2023-07-05T19:31:26.335Z,18.90
2023-07-05T19:33:55.224Z,18.87
2023-07-05T19:36:39.161Z,18.80
2023-07-05T19:39:08.122Z,18.83
2023-07-05T19:41:36.424Z,18.78
2023-07-05T19:44:04.594Z,18.66
2023-07-05T19:46:34.664Z,18.60
2023-07-05T19:49:06.125Z,18.58
2023-07-05T19:51:34.307Z,18.52
2023-07-05T19:54:02.406Z,18.54
2023-07-05T19:56:31.897Z,18.36
2023-07-05T19:59:01.151Z,18.35
2023-07-05T20:01:29.717Z,18.34
2023-07-05T20:04:02.057Z,18.27
2023-07-05T20:06:30.549Z,18.18
2023-07-05T20:08:58.788Z,18.14
2023-07-05T20:11:26.989Z,18.10
2023-07-05T20:13:55.419Z,18.08
2023-07-05T20:16:24.110Z,18.06
2023-07-05T20:18:52.240Z,18.04
2023-07-05T20:21:21.737Z,17.98
2023-07-05T20:23:49.974Z,18.00
2023-07-05T20:26:19.838Z,17.93
2023-07-05T20:28:48.460Z,17.85
2023-07-05T20:31:17.515Z,17.88
2023-07-05T20:33:45.618Z,17.75
2023-07-05T20:36:16.411Z,17.70
2023-07-05T20:38:45.962Z,17.71
2023-07-05T20:41:15.492Z,17.62
2023-07-05T20:43:43.902Z,17.52
2023-07-05T20:46:15.647Z,17.48
2023-07-05T20:48:43.839Z,17.41
2023-07-05T20:51:15.467Z,17.34
2023-07-05T20:53:46.478Z,17.33
2023-07-05T20:56:16.566Z,17.30
2023-07-05T20:58:45.741Z,17.31
2023-07-05T21:01:15.933Z,17.25
2023-07-05T21:03:44.703Z,17.20
2023-07-05T21:06:12.670Z,17.06
2023-07-05T21:08:44.828Z,17.07
2023-07-05T21:11:17.100Z,17.01
2023-07-05T21:13:45.142Z,16.95
2023-07-05T21:16:14.191Z,16.89
2023-07-05T21:18:42.510Z,16.79
2023-07-05T21:21:10.906Z,16.76
2023-07-05T21:23:38.997Z,16.73
2023-07-05T21:26:08.400Z,16.72
2023-07-05T21:28:38.005Z,16.67
2023-07-05T21:31:07.711Z,16.56
2023-07-05T21:33:35.822Z,16.51
2023-07-05T21:36:04.259Z,16.47
2023-07-05T21:38:32.671Z,16.39
2023-07-05T21:41:01.582Z,16.36
2023-07-05T21:43:30.746Z,16.27
2023-07-05T21:46:00.631Z,16.22
2023-07-05T21:48:31.434Z,16.18
2023-07-05T21:51:00.338Z,16.13
2023-07-05T21:53:28.936Z,16.09
2023-07-05T21:55:58.390Z,16.09
2023-07-05T21:58:30.216Z,16.03
2023-07-05T22:01:01.202Z,15.99
2023-07-05T22:03:30.635Z,16.00
2023-07-05T22:06:03.041Z,15.95
2023-07-05T22:08:31.465Z,15.90
2023-07-05T22:10:59.765Z,15.82
2023-07-05T22:13:28.564Z,15.82
2023-07-05T22:15:58.138Z,15.76
2023-07-05T22:18:28.033Z,15.78
2023-07-05T22:20:56.073Z,15.70
2023-07-05T22:23:24.736Z,15.67
2023-07-05T22:25:57.387Z,15.68
2023-07-05T22:28:25.594Z,15.60
2023-07-05T22:30:53.622Z,15.56
2023-07-05T22:33:21.736Z,15.51
2023-07-05T22:35:51.425Z,15.47
2023-07-05T22:38:19.468Z,15.43
2023-07-05T22:40:47.456Z,15.41
2023-07-05T22:43:15.461Z,15.37
2023-07-05T22:45:43.516Z,15.30
2023-07-05T22:48:12.543Z,15.32
2023-07-05T22:50:40.530Z,15.32
2023-07-05T22:53:09.930Z,15.26
2023-07-05T22:55:37.967Z,15.22
2023-07-05T22:58:06.047Z,15.22
2023-07-05T23:00:34.088Z,15.15
2023-07-05T23:03:02.224Z,15.12
2023-07-05T23:05:32.430Z,15.05
2023-07-05T23:08:00.778Z,15.03
2023-07-05T23:10:30.163Z,15.00
2023-07-05T23:12:58.292Z,14.94
2023-07-05T23:15:26.430Z,14.86
2023-07-05T23:17:54.616Z,14.83
2023-07-05T23:20:24.328Z,14.81
2023-07-05T23:22:52.769Z,14.78
2023-07-05T23:25:21.083Z,14.81
2023-07-05T23:27:51.258Z,14.74
2023-07-05T23:30:19.667Z,14.69
2023-07-05T23:32:49.926Z,14.65
2023-07-05T23:35:18.081Z,14.57
2023-07-05T23:37:46.074Z,14.58
2023-07-05T23:40:14.587Z,14.51
2023-07-05T23:42:47.739Z,14.48
2023-07-05T23:45:17.324Z,14.47
2023-07-05T23:47:45.456Z,14.44
2023-07-05T23:50:14.148Z,14.36
2023-07-05T23:52:42.168Z,14.31
2023-07-05T23:55:11.315Z,14.31
2023-07-05T23:57:39.647Z,14.29
